sensor_id;sensor_type;location;lat;lon;timestamp;temperature;humidity
15105;DHT22;7653;48.994;9.212;2023-07-29T00:00:47;17.80;99.90
15105;DHT22;7653;48.994;9.212;2023-07-29T00:03:13;17.80;99.90
15105;DHT22;7653;48.994;9.212;2023-07-29T00:05:38;17.80;99.90
15105;DHT22;7653;48.994;9.212;2023-07-29T00:08:05;17.80;99.90
15105;DHT22;7653;48.994;9.212;2023-07-29T00:10:36;17.80;99.90
15105;DHT22;7653;48.994;9.212;2023-07-29T00:13:03;17.90;99.90
15105;DHT22;7653;48.994;9.212;2023-07-29T00:15:29;17.80;99.90
15105;DHT22;7653;48.994;9.212;2023-07-29T00:17:55;17.80;99.90
15105;DHT22;7653;48.994;9.212;2023-07-29T00:20:20;17.80;99.90
15105;DHT22;7653;48.994;9.212;2023-07-29T00:22:46;17.80;99.90
15105;DHT22;7653;48.994;9.212;2023-07-29T00:25:11;17.80;99.90
15105;DHT22;7653;48.994;9.212;2023-07-29T00:27:37;17.80;99.90
15105;DHT22;7653;48.994;9.212;2023-07-29T00:30:03;17.80;99.90
15105;DHT22;7653;48.994;9.212;2023-07-29T00:32:30;17.80;99.90
15105;DHT22;7653;48.994;9.212;2023-07-29T00:34:56;17.80;99.90
15105;DHT22;7653;48.994;9.212;2023-07-29T00:37:22;17.80;99.90
15105;DHT22;7653;48.994;9.212;2023-07-29T00:39:47;17.90;99.90
15105;DHT22;7653;48.994;9.212;2023-07-29T00:42:13;17.90;99.90
15105;DHT22;7653;48.994;9.212;2023-07-29T00:44:38;17.90;99.90
15105;DHT22;7653;48.994;9.212;2023-07-29T00:47:05;17.90;99.90
15105;DHT22;7653;48.994;9.212;2023-07-29T00:49:32;17.90;99.90
15105;DHT22;7653;48.994;9.212;2023-07-29T00:51:58;17.90;99.90
15105;DHT22;7653;48.994;9.212;2023-07-29T00:54:24;17.90;99.90
15105;DHT22;7653;48.994;9.212;2023-07-29T00:56:49;17.90;99.90
15105;DHT22;7653;48.994;9.212;2023-07-29T00:59:15;17.90;99.90
15105;DHT22;7653;48.994;9.212;2023-07-29T01:01:42;17.90;99.90
15105;DHT22;7653;48.994;9.212;2023-07-29T01:04:07;18.00;99.90
15105;DHT22;7653;48.994;9.212;2023-07-29T01:12:18;18.00;99.90
15105;DHT22;7653;48.994;9.212;2023-07-29T01:17:15;17.90;99.90
15105;DHT22;7653;48.994;9.212;2023-07-29T01:22:29;17.90;99.90
15105;DHT22;7653;48.994;9.212;2023-07-29T01:24:57;17.90;99.90
15105;DHT22;7653;48.994;9.212;2023-07-29T01:27:23;17.90;99.90
15105;DHT22;7653;48.994;9.212;2023-07-29T01:29:48;17.80;99.90
15105;DHT22;7653;48.994;9.212;2023-07-29T01:32:24;18.00;99.90
15105;DHT22;7653;48.994;9.212;2023-07-29T01:35:03;18.00;99.90
15105;DHT22;7653;48.994;9.212;2023-07-29T01:37:32;18.00;99.90
15105;DHT22;7653;48.994;9.212;2023-07-29T01:40:00;18.00;99.90
15105;DHT22;7653;48.994;9.212;2023-07-29T01:42:26;17.90;99.90
15105;DHT22;7653;48.994;9.212;2023-07-29T01:44:52;18.00;99.90
15105;DHT22;7653;48.994;9.212;2023-07-29T01:47:18;18.00;99.90
15105;DHT22;7653;48.994;9.212;2023-07-29T01:49:44;17.90;99.90
15105;DHT22;7653;48.994;9.212;2023-07-29T01:52:09;17.90;99.90
15105;DHT22;7653;48.994;9.212;2023-07-29T01:54:35;17.90;99.90
15105;DHT22;7653;48.994;9.212;2023-07-29T01:57:00;17.90;99.90
15105;DHT22;7653;48.994;9.212;2023-07-29T01:59:26;17.90;99.90
15105;DHT22;7653;48.994;9.212;2023-07-29T02:01:52;17.90;99.90
15105;DHT22;7653;48.994;9.212;2023-07-29T02:04:17;17.90;99.90
15105;DHT22;7653;48.994;9.212;2023-07-29T02:06:43;17.90;99.90
15105;DHT22;7653;48.994;9.212;2023-07-29T02:09:09;17.90;99.90
15105;DHT22;7653;48.994;9.212;2023-07-29T02:11:35;17.90;99.90
15105;DHT22;7653;48.994;9.212;2023-07-29T02:14:00;17.90;99.90
15105;DHT22;7653;48.994;9.212;2023-07-29T02:16:26;17.90;99.90
15105;DHT22;7653;48.994;9.212;2023-07-29T02:18:52;17.90;99.90
15105;DHT22;7653;48.994;9.212;2023-07-29T02:21:17;17.90;99.90
15105;DHT22;7653;48.994;9.212;2023-07-29T02:23:43;17.80;99.90
15105;DHT22;7653;48.994;9.212;2023-07-29T02:26:09;17.80;99.90
15105;DHT22;7653;48.994;9.212;2023-07-29T02:28:34;17.80;99.90
15105;DHT22;7653;48.994;9.212;2023-07-29T02:33:45;17.80;99.90
15105;DHT22;7653;48.994;9.212;2023-07-29T02:36:11;17.70;99.90
15105;DHT22;7653;48.994;9.212;2023-07-29T02:38:37;17.70;99.90
15105;DHT22;7653;48.994;9.212;2023-07-29T02:41:03;17.70;99.90
15105;DHT22;7653;48.994;9.212;2023-07-29T02:43:28;17.70;99.90
15105;DHT22;7653;48.994;9.212;2023-07-29T02:45:54;17.70;99.90
15105;DHT22;7653;48.994;9.212;2023-07-29T02:48:19;17.70;99.90
15105;DHT22;7653;48.994;9.212;2023-07-29T02:50:45;17.70;99.90
15105;DHT22;7653;48.994;9.212;2023-07-29T02:53:11;17.70;99.90
15105;DHT22;7653;48.994;9.212;2023-07-29T02:55:40;17.70;99.90
15105;DHT22;7653;48.994;9.212;2023-07-29T02:58:06;17.80;99.90
15105;DHT22;7653;48.994;9.212;2023-07-29T03:00:32;17.70;99.90
15105;DHT22;7653;48.994;9.212;2023-07-29T03:02:58;17.60;99.90
15105;DHT22;7653;48.994;9.212;2023-07-29T03:05:24;17.70;99.90
15105;DHT22;7653;48.994;9.212;2023-07-29T03:07:50;17.60;99.90
15105;DHT22;7653;48.994;9.212;2023-07-29T03:10:15;17.60;99.90
15105;DHT22;7653;48.994;9.212;2023-07-29T03:12:41;17.60;99.90
15105;DHT22;7653;48.994;9.212;2023-07-29T03:15:07;17.50;99.90
15105;DHT22;7653;48.994;9.212;2023-07-29T03:17:32;17.60;99.90
15105;DHT22;7653;48.994;9.212;2023-07-29T03:19:58;17.50;99.90
15105;DHT22;7653;48.994;9.212;2023-07-29T03:22:24;17.50;99.90
15105;DHT22;7653;48.994;9.212;2023-07-29T03:24:49;17.60;99.90
15105;DHT22;7653;48.994;9.212;2023-07-29T03:27:15;17.60;99.90
15105;DHT22;7653;48.994;9.212;2023-07-29T03:29:41;17.60;99.90
15105;DHT22;7653;48.994;9.212;2023-07-29T03:32:07;17.50;99.90
15105;DHT22;7653;48.994;9.212;2023-07-29T03:34:33;17.50;99.90
15105;DHT22;7653;48.994;9.212;2023-07-29T03:37:00;17.50;99.90
15105;DHT22;7653;48.994;9.212;2023-07-29T03:39:26;17.50;99.90
15105;DHT22;7653;48.994;9.212;2023-07-29T03:41:52;17.50;99.90
15105;DHT22;7653;48.994;9.212;2023-07-29T03:44:18;17.50;99.90
15105;DHT22;7653;48.994;9.212;2023-07-29T03:46:44;17.50;99.90
15105;DHT22;7653;48.994;9.212;2023-07-29T03:49:10;17.50;99.90
15105;DHT22;7653;48.994;9.212;2023-07-29T03:51:36;17.50;99.90
15105;DHT22;7653;48.994;9.212;2023-07-29T03:54:01;17.60;99.90
15105;DHT22;7653;48.994;9.212;2023-07-29T03:56:27;17.60;99.90
15105;DHT22;7653;48.994;9.212;2023-07-29T03:58:53;17.60;99.90
15105;DHT22;7653;48.994;9.212;2023-07-29T04:01:19;17.60;99.90
15105;DHT22;7653;48.994;9.212;2023-07-29T04:03:45;17.60;99.90
15105;DHT22;7653;48.994;9.212;2023-07-29T04:06:14;17.60;99.90
15105;DHT22;7653;48.994;9.212;2023-07-29T04:08:40;17.60;99.90
15105;DHT22;7653;48.994;9.212;2023-07-29T04:11:07;17.60;99.90
15105;DHT22;7653;48.994;9.212;2023-07-29T04:13:32;17.60;99.90
15105;DHT22;7653;48.994;9.212;2023-07-29T04:15:58;17.60;99.90
15105;DHT22;7653;48.994;9.212;2023-07-29T04:18:23;17.60;99.90
15105;DHT22;7653;48.994;9.212;2023-07-29T04:20:49;17.60;99.90
15105;DHT22;7653;48.994;9.212;2023-07-29T04:23:15;17.60;99.90
15105;DHT22;7653;48.994;9.212;2023-07-29T04:25:40;17.60;99.90
15105;DHT22;7653;48.994;9.212;2023-07-29T04:28:06;17.60;99.90
15105;DHT22;7653;48.994;9.212;2023-07-29T04:30:32;17.60;99.90
15105;DHT22;7653;48.994;9.212;2023-07-29T04:32:57;17.60;99.90
15105;DHT22;7653;48.994;9.212;2023-07-29T04:35:23;17.60;99.90
15105;DHT22;7653;48.994;9.212;2023-07-29T04:37:49;17.60;99.90
15105;DHT22;7653;48.994;9.212;2023-07-29T04:40:14;17.60;99.90
15105;DHT22;7653;48.994;9.212;2023-07-29T04:42:40;17.70;99.90
15105;DHT22;7653;48.994;9.212;2023-07-29T04:45:06;17.60;99.90
15105;DHT22;7653;48.994;9.212;2023-07-29T04:47:32;17.60;99.90
15105;DHT22;7653;48.994;9.212;2023-07-29T04:49:57;17.50;99.90
15105;DHT22;7653;48.994;9.212;2023-07-29T04:52:23;17.60;99.90
15105;DHT22;7653;48.994;9.212;2023-07-29T04:54:49;17.50;99.90
15105;DHT22;7653;48.994;9.212;2023-07-29T04:57:14;17.50;99.90
15105;DHT22;7653;48.994;9.212;2023-07-29T04:59:40;17.40;99.90
15105;DHT22;7653;48.994;9.212;2023-07-29T05:02:06;17.50;99.90
15105;DHT22;7653;48.994;9.212;2023-07-29T05:04:31;17.50;99.90
15105;DHT22;7653;48.994;9.212;2023-07-29T05:06:57;17.60;99.90
15105;DHT22;7653;48.994;9.212;2023-07-29T05:09:23;17.60;99.90
15105;DHT22;7653;48.994;9.212;2023-07-29T05:11:49;17.70;99.90
15105;DHT22;7653;48.994;9.212;2023-07-29T05:14:16;17.70;99.90
15105;DHT22;7653;48.994;9.212;2023-07-29T05:16:42;17.80;99.90
15105;DHT22;7653;48.994;9.212;2023-07-29T05:19:08;17.80;99.90
15105;DHT22;7653;48.994;9.212;2023-07-29T05:21:33;17.90;99.90
15105;DHT22;7653;48.994;9.212;2023-07-29T05:23:59;18.00;99.90
15105;DHT22;7653;48.994;9.212;2023-07-29T05:26:25;18.10;99.90
15105;DHT22;7653;48.994;9.212;2023-07-29T05:28:51;18.00;99.90
15105;DHT22;7653;48.994;9.212;2023-07-29T05:31:17;18.00;99.90
15105;DHT22;7653;48.994;9.212;2023-07-29T05:33:43;18.10;99.90
15105;DHT22;7653;48.994;9.212;2023-07-29T05:36:09;18.20;99.90
15105;DHT22;7653;48.994;9.212;2023-07-29T05:38:34;18.30;99.90
15105;DHT22;7653;48.994;9.212;2023-07-29T05:41:00;18.40;99.90
15105;DHT22;7653;48.994;9.212;2023-07-29T05:43:26;18.40;99.90
15105;DHT22;7653;48.994;9.212;2023-07-29T05:45:52;18.50;99.90
15105;DHT22;7653;48.994;9.212;2023-07-29T05:48:19;18.50;99.90
15105;DHT22;7653;48.994;9.212;2023-07-29T05:50:45;18.50;99.90
15105;DHT22;7653;48.994;9.212;2023-07-29T05:53:11;18.40;99.90
15105;DHT22;7653;48.994;9.212;2023-07-29T05:55:36;18.40;99.90
15105;DHT22;7653;48.994;9.212;2023-07-29T05:58:02;18.40;99.90
15105;DHT22;7653;48.994;9.212;2023-07-29T06:00:27;18.30;99.90
15105;DHT22;7653;48.994;9.212;2023-07-29T06:02:53;18.30;99.90
15105;DHT22;7653;48.994;9.212;2023-07-29T06:05:19;18.40;99.90
15105;DHT22;7653;48.994;9.212;2023-07-29T06:07:44;18.40;99.90
15105;DHT22;7653;48.994;9.212;2023-07-29T06:10:13;18.60;99.90
15105;DHT22;7653;48.994;9.212;2023-07-29T06:12:39;18.70;99.90
15105;DHT22;7653;48.994;9.212;2023-07-29T06:15:05;18.90;99.90
15105;DHT22;7653;48.994;9.212;2023-07-29T06:17:30;19.10;99.90
15105;DHT22;7653;48.994;9.212;2023-07-29T06:19:56;19.20;99.90
15105;DHT22;7653;48.994;9.212;2023-07-29T06:22:22;19.40;99.90
15105;DHT22;7653;48.994;9.212;2023-07-29T06:24:47;19.40;99.90
15105;DHT22;7653;48.994;9.212;2023-07-29T06:27:13;19.50;99.90
15105;DHT22;7653;48.994;9.212;2023-07-29T06:29:38;19.50;99.90
15105;DHT22;7653;48.994;9.212;2023-07-29T06:32:04;19.60;99.90
15105;DHT22;7653;48.994;9.212;2023-07-29T06:34:30;19.70;99.90
15105;DHT22;7653;48.994;9.212;2023-07-29T06:36:56;19.70;99.90
15105;DHT22;7653;48.994;9.212;2023-07-29T06:39:21;19.80;99.90
15105;DHT22;7653;48.994;9.212;2023-07-29T06:41:47;19.80;99.90
15105;DHT22;7653;48.994;9.212;2023-07-29T06:44:13;19.80;99.90
15105;DHT22;7653;48.994;9.212;2023-07-29T06:46:38;19.80;99.90
15105;DHT22;7653;48.994;9.212;2023-07-29T06:49:05;19.70;99.90
15105;DHT22;7653;48.994;9.212;2023-07-29T06:51:31;19.80;99.90
15105;DHT22;7653;48.994;9.212;2023-07-29T06:54:00;19.80;99.90
15105;DHT22;7653;48.994;9.212;2023-07-29T06:56:26;19.60;99.90
15105;DHT22;7653;48.994;9.212;2023-07-29T06:58:52;19.80;99.90
15105;DHT22;7653;48.994;9.212;2023-07-29T07:01:17;19.90;99.90
15105;DHT22;7653;48.994;9.212;2023-07-29T07:03:43;19.70;99.90
15105;DHT22;7653;48.994;9.212;2023-07-29T07:06:09;19.80;99.90
15105;DHT22;7653;48.994;9.212;2023-07-29T07:08:34;19.70;99.90
15105;DHT22;7653;48.994;9.212;2023-07-29T07:11:00;19.70;99.90
15105;DHT22;7653;48.994;9.212;2023-07-29T07:13:25;19.60;99.90
15105;DHT22;7653;48.994;9.212;2023-07-29T07:15:54;19.60;99.90
15105;DHT22;7653;48.994;9.212;2023-07-29T07:18:20;19.60;99.90
15105;DHT22;7653;48.994;9.212;2023-07-29T07:20:49;19.70;99.90
15105;DHT22;7653;48.994;9.212;2023-07-29T07:23:15;19.70;99.90
15105;DHT22;7653;48.994;9.212;2023-07-29T07:25:41;19.60;99.90
15105;DHT22;7653;48.994;9.212;2023-07-29T07:28:10;19.60;99.90
15105;DHT22;7653;48.994;9.212;2023-07-29T07:30:40;19.60;99.90
15105;DHT22;7653;48.994;9.212;2023-07-29T07:33:09;19.70;99.90
15105;DHT22;7653;48.994;9.212;2023-07-29T07:35:35;19.70;99.90
15105;DHT22;7653;48.994;9.212;2023-07-29T07:38:00;19.80;99.90
15105;DHT22;7653;48.994;9.212;2023-07-29T07:40:30;19.90;99.90
15105;DHT22;7653;48.994;9.212;2023-07-29T07:42:56;20.00;99.90
15105;DHT22;7653;48.994;9.212;2023-07-29T07:45:21;20.10;99.90
15105;DHT22;7653;48.994;9.212;2023-07-29T07:47:47;20.10;99.90
15105;DHT22;7653;48.994;9.212;2023-07-29T07:50:13;20.10;99.90
15105;DHT22;7653;48.994;9.212;2023-07-29T07:52:39;20.10;99.90
15105;DHT22;7653;48.994;9.212;2023-07-29T07:55:05;20.30;99.90
15105;DHT22;7653;48.994;9.212;2023-07-29T07:57:31;20.40;99.90
15105;DHT22;7653;48.994;9.212;2023-07-29T07:59:56;20.40;99.90
15105;DHT22;7653;48.994;9.212;2023-07-29T08:02:22;20.60;99.90
15105;DHT22;7653;48.994;9.212;2023-07-29T08:04:48;20.90;99.90
15105;DHT22;7653;48.994;9.212;2023-07-29T08:07:14;21.20;99.90
15105;DHT22;7653;48.994;9.212;2023-07-29T08:09:39;21.10;99.80
15105;DHT22;7653;48.994;9.212;2023-07-29T08:12:05;21.30;99.90
15105;DHT22;7653;48.994;9.212;2023-07-29T08:14:31;21.40;99.90
15105;DHT22;7653;48.994;9.212;2023-07-29T08:16:57;21.80;99.50
15105;DHT22;7653;48.994;9.212;2023-07-29T08:19:23;22.00;95.50
15105;DHT22;7653;48.994;9.212;2023-07-29T08:21:48;22.10;96.40
15105;DHT22;7653;48.994;9.212;2023-07-29T08:24:14;22.30;95.30
15105;DHT22;7653;48.994;9.212;2023-07-29T08:26:40;22.60;94.50
15105;DHT22;7653;48.994;9.212;2023-07-29T08:29:05;22.40;93.00
15105;DHT22;7653;48.994;9.212;2023-07-29T08:31:31;22.50;91.50
15105;DHT22;7653;48.994;9.212;2023-07-29T08:33:59;22.40;91.40
15105;DHT22;7653;48.994;9.212;2023-07-29T08:36:25;22.00;94.40
15105;DHT22;7653;48.994;9.212;2023-07-29T08:38:50;21.60;95.80
15105;DHT22;7653;48.994;9.212;2023-07-29T08:46:19;21.50;96.60
15105;DHT22;7653;48.994;9.212;2023-07-29T08:48:46;21.40;98.00
15105;DHT22;7653;48.994;9.212;2023-07-29T08:51:12;21.50;96.50
15105;DHT22;7653;48.994;9.212;2023-07-29T08:53:39;21.60;97.10
15105;DHT22;7653;48.994;9.212;2023-07-29T08:56:05;21.70;97.80
15105;DHT22;7653;48.994;9.212;2023-07-29T08:58:31;22.00;94.00
15105;DHT22;7653;48.994;9.212;2023-07-29T09:00:57;22.20;90.60
15105;DHT22;7653;48.994;9.212;2023-07-29T09:03:23;22.30;88.80
15105;DHT22;7653;48.994;9.212;2023-07-29T09:05:49;22.50;84.50
15105;DHT22;7653;48.994;9.212;2023-07-29T09:08:15;22.60;81.30
15105;DHT22;7653;48.994;9.212;2023-07-29T09:10:41;22.70;76.90
15105;DHT22;7653;48.994;9.212;2023-07-29T09:13:07;22.70;72.80
15105;DHT22;7653;48.994;9.212;2023-07-29T09:15:35;22.80;73.50
15105;DHT22;7653;48.994;9.212;2023-07-29T09:18:12;22.80;72.00
15105;DHT22;7653;48.994;9.212;2023-07-29T09:20:39;22.80;72.00
15105;DHT22;7653;48.994;9.212;2023-07-29T09:23:07;23.00;75.40
15105;DHT22;7653;48.994;9.212;2023-07-29T09:25:34;23.10;72.20
15105;DHT22;7653;48.994;9.212;2023-07-29T09:28:00;22.70;73.50
15105;DHT22;7653;48.994;9.212;2023-07-29T09:30:26;22.80;72.00
15105;DHT22;7653;48.994;9.212;2023-07-29T09:32:58;22.60;66.90
15105;DHT22;7653;48.994;9.212;2023-07-29T09:35:27;22.40;64.40
15105;DHT22;7653;48.994;9.212;2023-07-29T09:37:53;22.30;67.60
15105;DHT22;7653;48.994;9.212;2023-07-29T09:40:19;22.40;67.90
15105;DHT22;7653;48.994;9.212;2023-07-29T09:42:52;22.40;64.70
15105;DHT22;7653;48.994;9.212;2023-07-29T09:45:24;22.30;65.40
15105;DHT22;7653;48.994;9.212;2023-07-29T09:47:51;22.20;68.30
15105;DHT22;7653;48.994;9.212;2023-07-29T09:50:17;21.60;75.70
15105;DHT22;7653;48.994;9.212;2023-07-29T09:52:43;20.50;92.50
15105;DHT22;7653;48.994;9.212;2023-07-29T09:55:13;19.40;99.30
15105;DHT22;7653;48.994;9.212;2023-07-29T09:57:40;18.70;99.90
15105;DHT22;7653;48.994;9.212;2023-07-29T10:00:06;18.40;99.90
15105;DHT22;7653;48.994;9.212;2023-07-29T10:02:40;18.40;99.90
15105;DHT22;7653;48.994;9.212;2023-07-29T10:05:07;18.50;99.90
15105;DHT22;7653;48.994;9.212;2023-07-29T10:07:37;18.60;99.90
15105;DHT22;7653;48.994;9.212;2023-07-29T10:10:05;18.70;99.90
15105;DHT22;7653;48.994;9.212;2023-07-29T10:12:32;18.80;99.90
15105;DHT22;7653;48.994;9.212;2023-07-29T10:15:05;18.80;99.90
15105;DHT22;7653;48.994;9.212;2023-07-29T10:17:35;19.00;99.90
15105;DHT22;7653;48.994;9.212;2023-07-29T10:20:02;19.20;99.90
15105;DHT22;7653;48.994;9.212;2023-07-29T10:22:33;19.40;99.90
15105;DHT22;7653;48.994;9.212;2023-07-29T10:27:52;19.40;99.90
15105;DHT22;7653;48.994;9.212;2023-07-29T10:30:19;19.60;99.90
15105;DHT22;7653;48.994;9.212;2023-07-29T10:32:45;19.80;99.90
15105;DHT22;7653;48.994;9.212;2023-07-29T10:35:15;20.00;99.90
15105;DHT22;7653;48.994;9.212;2023-07-29T10:37:41;20.30;99.90
15105;DHT22;7653;48.994;9.212;2023-07-29T10:40:11;20.60;98.20
15105;DHT22;7653;48.994;9.212;2023-07-29T10:42:38;20.70;98.80
15105;DHT22;7653;48.994;9.212;2023-07-29T10:45:24;20.80;97.20
15105;DHT22;7653;48.994;9.212;2023-07-29T10:47:50;20.80;94.90
15105;DHT22;7653;48.994;9.212;2023-07-29T10:50:20;20.80;94.90
15105;DHT22;7653;48.994;9.212;2023-07-29T10:52:50;20.90;91.10
15105;DHT22;7653;48.994;9.212;2023-07-29T10:55:33;21.10;92.30
15105;DHT22;7653;48.994;9.212;2023-07-29T10:58:16;21.40;90.40
15105;DHT22;7653;48.994;9.212;2023-07-29T11:00:45;21.60;86.90
15105;DHT22;7653;48.994;9.212;2023-07-29T11:03:13;21.90;85.40
15105;DHT22;7653;48.994;9.212;2023-07-29T11:05:51;22.10;89.10
15105;DHT22;7653;48.994;9.212;2023-07-29T11:10:44;22.10;74.60
15105;DHT22;7653;48.994;9.212;2023-07-29T11:13:10;22.00;72.70
15105;DHT22;7653;48.994;9.212;2023-07-29T11:15:39;22.20;77.30
15105;DHT22;7653;48.994;9.212;2023-07-29T11:18:06;22.40;71.70
15105;DHT22;7653;48.994;9.212;2023-07-29T11:20:34;22.40;72.90
15105;DHT22;7653;48.994;9.212;2023-07-29T11:23:03;22.80;72.00
15105;DHT22;7653;48.994;9.212;2023-07-29T11:25:30;22.90;67.40
15105;DHT22;7653;48.994;9.212;2023-07-29T11:27:58;23.00;65.70
15105;DHT22;7653;48.994;9.212;2023-07-29T11:30:24;22.80;65.80
15105;DHT22;7653;48.994;9.212;2023-07-29T11:32:55;22.90;63.20
15105;DHT22;7653;48.994;9.212;2023-07-29T11:35:21;22.90;63.20
15105;DHT22;7653;48.994;9.212;2023-07-29T11:37:48;23.10;59.70
15105;DHT22;7653;48.994;9.212;2023-07-29T11:40:18;23.30;61.00
15105;DHT22;7653;48.994;9.212;2023-07-29T11:42:45;23.30;60.00
15105;DHT22;7653;48.994;9.212;2023-07-29T11:45:11;23.10;56.00
15105;DHT22;7653;48.994;9.212;2023-07-29T11:47:37;22.90;57.30
15105;DHT22;7653;48.994;9.212;2023-07-29T11:50:07;23.10;54.40
15105;DHT22;7653;48.994;9.212;2023-07-29T11:52:36;23.30;53.90
15105;DHT22;7653;48.994;9.212;2023-07-29T11:55:03;23.50;52.80
15105;DHT22;7653;48.994;9.212;2023-07-29T11:57:30;23.50;53.60
15105;DHT22;7653;48.994;9.212;2023-07-29T11:59:56;23.70;52.50
15105;DHT22;7653;48.994;9.212;2023-07-29T12:02:22;23.60;49.60
15105;DHT22;7653;48.994;9.212;2023-07-29T12:04:49;23.60;52.20
15105;DHT22;7653;48.994;9.212;2023-07-29T12:07:17;23.60;46.30
15105;DHT22;7653;48.994;9.212;2023-07-29T12:09:43;23.50;49.90
15105;DHT22;7653;48.994;9.212;2023-07-29T12:12:09;23.50;50.20
15105;DHT22;7653;48.994;9.212;2023-07-29T12:14:35;23.80;46.20
15105;DHT22;7653;48.994;9.212;2023-07-29T12:17:02;24.10;47.90
15105;DHT22;7653;48.994;9.212;2023-07-29T12:19:35;24.10;46.40
15105;DHT22;7653;48.994;9.212;2023-07-29T12:22:02;24.20;43.40
15105;DHT22;7653;48.994;9.212;2023-07-29T12:24:30;24.20;41.80
15105;DHT22;7653;48.994;9.212;2023-07-29T12:26:56;24.10;41.80
15105;DHT22;7653;48.994;9.212;2023-07-29T12:29:22;24.20;43.40
15105;DHT22;7653;48.994;9.212;2023-07-29T12:31:49;24.50;43.70
15105;DHT22;7653;48.994;9.212;2023-07-29T12:34:26;24.60;41.40
15105;DHT22;7653;48.994;9.212;2023-07-29T12:36:52;24.60;38.00
15105;DHT22;7653;48.994;9.212;2023-07-29T12:39:28;24.50;38.50
15105;DHT22;7653;48.994;9.212;2023-07-29T12:41:55;24.50;38.50
15105;DHT22;7653;48.994;9.212;2023-07-29T12:44:26;24.60;38.70
15105;DHT22;7653;48.994;9.212;2023-07-29T12:46:52;24.70;36.30
15105;DHT22;7653;48.994;9.212;2023-07-29T12:49:18;24.70;37.10
15105;DHT22;7653;48.994;9.212;2023-07-29T12:51:44;24.50;38.50
15105;DHT22;7653;48.994;9.212;2023-07-29T12:54:09;24.30;35.70
15105;DHT22;7653;48.994;9.212;2023-07-29T12:56:35;24.20;35.60
15105;DHT22;7653;48.994;9.212;2023-07-29T12:59:01;24.20;37.20
15105;DHT22;7653;48.994;9.212;2023-07-29T13:01:28;24.40;40.80
15105;DHT22;7653;48.994;9.212;2023-07-29T13:03:54;24.40;35.70
15105;DHT22;7653;48.994;9.212;2023-07-29T13:06:20;24.40;36.00
15105;DHT22;7653;48.994;9.212;2023-07-29T13:08:46;24.60;39.10
15105;DHT22;7653;48.994;9.212;2023-07-29T13:11:12;24.60;33.40
15105;DHT22;7653;48.994;9.212;2023-07-29T13:13:38;24.50;33.40
15105;DHT22;7653;48.994;9.212;2023-07-29T13:16:04;24.80;34.30
15105;DHT22;7653;48.994;9.212;2023-07-29T13:18:29;24.90;36.80
15105;DHT22;7653;48.994;9.212;2023-07-29T13:20:55;24.80;33.10
15105;DHT22;7653;48.994;9.212;2023-07-29T13:23:21;24.70;32.70
15105;DHT22;7653;48.994;9.212;2023-07-29T13:25:47;24.70;30.90
15105;DHT22;7653;48.994;9.212;2023-07-29T13:28:13;25.00;28.80
15105;DHT22;7653;48.994;9.212;2023-07-29T13:30:39;25.10;28.90
15105;DHT22;7653;48.994;9.212;2023-07-29T13:33:06;25.30;29.80
15105;DHT22;7653;48.994;9.212;2023-07-29T13:35:32;25.70;29.20
15105;DHT22;7653;48.994;9.212;2023-07-29T13:37:57;25.80;29.20
15105;DHT22;7653;48.994;9.212;2023-07-29T13:40:23;25.40;28.50
15105;DHT22;7653;48.994;9.212;2023-07-29T13:42:49;25.00;29.40
15105;DHT22;7653;48.994;9.212;2023-07-29T13:45:14;25.10;29.50
15105;DHT22;7653;48.994;9.212;2023-07-29T13:47:40;25.30;29.00
15105;DHT22;7653;48.994;9.212;2023-07-29T13:50:06;25.30;29.00
15105;DHT22;7653;48.994;9.212;2023-07-29T13:52:36;25.00;29.10
15105;DHT22;7653;48.994;9.212;2023-07-29T13:55:02;24.90;28.80
15105;DHT22;7653;48.994;9.212;2023-07-29T13:57:27;25.00;29.80
15105;DHT22;7653;48.994;9.212;2023-07-29T13:59:53;25.20;29.10
15105;DHT22;7653;48.994;9.212;2023-07-29T14:02:19;25.30;30.90
15105;DHT22;7653;48.994;9.212;2023-07-29T14:04:44;25.50;28.60
15105;DHT22;7653;48.994;9.212;2023-07-29T14:07:10;25.50;30.50
15105;DHT22;7653;48.994;9.212;2023-07-29T14:09:35;25.70;29.20
15105;DHT22;7653;48.994;9.212;2023-07-29T14:12:02;25.80;27.40
15105;DHT22;7653;48.994;9.212;2023-07-29T14:14:28;26.30;26.10
15105;DHT22;7653;48.994;9.212;2023-07-29T14:16:54;26.10;26.20
15105;DHT22;7653;48.994;9.212;2023-07-29T14:19:20;26.70;25.50
15105;DHT22;7653;48.994;9.212;2023-07-29T14:21:45;27.20;22.80
15105;DHT22;7653;48.994;9.212;2023-07-29T14:24:11;27.00;23.10
15105;DHT22;7653;48.994;9.212;2023-07-29T14:26:36;27.10;21.50
15105;DHT22;7653;48.994;9.212;2023-07-29T14:29:02;26.70;21.30
15105;DHT22;7653;48.994;9.212;2023-07-29T14:31:28;26.20;23.20
15105;DHT22;7653;48.994;9.212;2023-07-29T14:33:53;26.10;23.20
15105;DHT22;7653;48.994;9.212;2023-07-29T14:36:19;26.40;23.30
15105;DHT22;7653;48.994;9.212;2023-07-29T14:38:44;26.40;23.10
15105;DHT22;7653;48.994;9.212;2023-07-29T14:41:10;26.70;21.30
15105;DHT22;7653;48.994;9.212;2023-07-29T14:43:36;26.50;21.40
15105;DHT22;7653;48.994;9.212;2023-07-29T14:46:02;26.60;21.20
15105;DHT22;7653;48.994;9.212;2023-07-29T14:48:27;26.90;20.80
15105;DHT22;7653;48.994;9.212;2023-07-29T14:50:53;26.80;20.20
15105;DHT22;7653;48.994;9.212;2023-07-29T14:53:19;26.90;21.40
15105;DHT22;7653;48.994;9.212;2023-07-29T14:55:45;27.60;20.10
15105;DHT22;7653;48.994;9.212;2023-07-29T14:58:10;28.10;19.80
15105;DHT22;7653;48.994;9.212;2023-07-29T15:00:36;28.30;20.30
15105;DHT22;7653;48.994;9.212;2023-07-29T15:03:02;28.00;19.30
15105;DHT22;7653;48.994;9.212;2023-07-29T15:05:28;27.90;17.60
15105;DHT22;7653;48.994;9.212;2023-07-29T15:07:54;27.80;19.00
15105;DHT22;7653;48.994;9.212;2023-07-29T15:10:19;28.30;17.80
15105;DHT22;7653;48.994;9.212;2023-07-29T15:12:46;28.50;18.00
15105;DHT22;7653;48.994;9.212;2023-07-29T15:15:12;28.70;16.70
15105;DHT22;7653;48.994;9.212;2023-07-29T15:17:38;28.00;17.70
15105;DHT22;7653;48.994;9.212;2023-07-29T15:20:04;27.90;17.60
15105;DHT22;7653;48.994;9.212;2023-07-29T15:22:30;27.80;18.30
15105;DHT22;7653;48.994;9.212;2023-07-29T15:24:59;27.70;17.50
15105;DHT22;7653;48.994;9.212;2023-07-29T15:27:28;27.60;18.40
15105;DHT22;7653;48.994;9.212;2023-07-29T15:29:55;27.50;17.40
15105;DHT22;7653;48.994;9.212;2023-07-29T15:32:20;27.60;16.70
15105;DHT22;7653;48.994;9.212;2023-07-29T15:34:47;27.60;17.50
15105;DHT22;7653;48.994;9.212;2023-07-29T15:37:13;28.00;16.40
15105;DHT22;7653;48.994;9.212;2023-07-29T15:39:38;28.10;16.40
15105;DHT22;7653;48.994;9.212;2023-07-29T15:42:04;28.20;17.80
15105;DHT22;7653;48.994;9.212;2023-07-29T15:44:30;28.40;15.30
15105;DHT22;7653;48.994;9.212;2023-07-29T15:46:55;28.60;14.80
15105;DHT22;7653;48.994;9.212;2023-07-29T15:49:22;28.20;14.90
15105;DHT22;7653;48.994;9.212;2023-07-29T15:51:48;28.40;14.80
15105;DHT22;7653;48.994;9.212;2023-07-29T15:54:14;28.90;13.80
15105;DHT22;7653;48.994;9.212;2023-07-29T15:56:40;28.60;14.40
15105;DHT22;7653;48.994;9.212;2023-07-29T15:59:08;27.80;16.50
15105;DHT22;7653;48.994;9.212;2023-07-29T16:01:33;28.70;13.90
15105;DHT22;7653;48.994;9.212;2023-07-29T16:03:59;28.60;14.30